CheckWX is a tool to help pilots better visualize weather data.  It is not intended as a substitute for an official pre-flight weather briefing.

15:08:36 UTC

KPDK METAR
Dekalb-Peachtree Airport
Atlanta, Georgia, USA
Current

16 mins ago

KPDK 201453Z 30009KT 10SM BKN038 BKN049 25/18 A3007 RMK AO2 SLP169 T02500178 51007
Observed
May-20 @ 14:53 UTC
Wind
  • 300° at 9 KTS
Visibility
10 SM
Flight Rules
VFR
Cloud Levels
  • Broken at 3,800' AGL
  • Broken at 4,900' AGL
Temperature
25°C / 77°F
Dewpoint
18°C / 64°F
Humidity
65%
Altimeter
30.07" Hg
Pressure
1018.32 hPa
Previous

1 hour ago

KPDK 201353Z 27007KT 10SM FEW090 24/17 A3007 RMK AO2 SLP169 T02390172
Observed
May-20 @ 13:53 UTC
Wind
  • 270° at 7 KTS
Visibility
10 SM
Flight Rules
VFR
Cloud Levels
  • Few at 9,000' AGL
Temperature
24°C / 75°F
Dewpoint
17°C / 63°F
Humidity
65%
Altimeter
30.07" Hg
Pressure
1018.32 hPa
Previous

2 hours ago

KPDK 201253Z 26005KT 10SM FEW060 SCT085 23/17 A3007 RMK AO2 SLP167 T02330172
Observed
May-20 @ 12:53 UTC
Wind
  • 260° at 5 KTS
Visibility
10 SM
Flight Rules
VFR
Cloud Levels
  • Few at 6,000' AGL
  • Scattered at 8,500' AGL
Temperature
23°C / 73°F
Dewpoint
17°C / 63°F
Humidity
69%
Altimeter
30.07" Hg
Pressure
1018.32 hPa